Time;durP1;ratioP1;P1;durP2;ratioP2;P2;SDS_P1;SDS_P2;PMS_P1;PMS_P2;Temp;Humidity;BMP_temperature;BMP_pressure;BME280_temperature;BME280_humidity;BME280_pressure;Samples;Min_cycle;Max_cycle;Signal;HPM_P1;HPM_P2
2021/12/01 00:02:18;;;;;;;1.88;1.50;;;3.70;99.90;;;;;;5019615;28;20470;-57
2021/12/01 00:04:45;;;;;;;4.35;2.42;;;3.70;99.90;;;;;;5019977;28;20202;-53
2021/12/01 00:07:12;;;;;;;3.90;1.77;;;3.70;99.90;;;;;;5019566;28;20202;-54
2021/12/01 00:09:40;;;;;;;1.05;0.90;;;3.70;99.90;;;;;;5019524;28;20234;-54
2021/12/01 00:12:09;;;;;;;2.33;1.40;;;3.70;99.90;;;;;;5019267;28;20223;-54
2021/12/01 00:14:37;;;;;;;3.10;0.90;;;3.70;99.90;;;;;;5019896;28;20433;-54
2021/12/01 00:17:04;;;;;;;2.75;1.23;;;3.70;99.90;;;;;;5020856;28;20198;-56
2021/12/01 00:19:33;;;;;;;3.00;1.35;;;3.70;99.90;;;;;;5041131;28;20213;-56
2021/12/01 00:22:00;;;;;;;5.90;1.38;;;3.80;99.90;;;;;;5043640;28;20209;-52
2021/12/01 00:24:28;;;;;;;22.77;1.52;;;3.70;99.90;;;;;;5043067;28;20205;-55
2021/12/01 00:26:55;;;;;;;1.35;0.80;;;3.70;99.90;;;;;;5043460;28;20248;-56
2021/12/01 00:29:23;;;;;;;2.88;0.85;;;3.70;99.90;;;;;;5042389;28;20226;-56
2021/12/01 00:31:50;;;;;;;2.45;1.05;;;3.80;99.90;;;;;;5043226;28;20281;-51
2021/12/01 00:34:18;;;;;;;2.75;1.38;;;3.80;99.90;;;;;;5042838;28;20198;-57
2021/12/01 00:36:46;;;;;;;1.48;1.38;;;3.80;99.90;;;;;;5043529;28;20244;-57
2021/12/01 00:39:14;;;;;;;0.70;0.70;;;3.70;99.90;;;;;;5043086;28;20286;-56
2021/12/01 00:41:41;;;;;;;1.63;1.23;;;3.80;99.90;;;;;;5043010;28;20255;-54
2021/12/01 00:44:10;;;;;;;2.05;1.17;;;3.70;99.90;;;;;;5043090;28;20203;-52
2021/12/01 00:46:54;;;;;;;6.30;1.40;;;3.70;99.90;;;;;;5042588;28;20201;-56
2021/12/01 00:49:22;;;;;;;2.45;1.42;;;3.70;99.90;;;;;;5042743;28;20269;-55
2021/12/01 00:51:50;;;;;;;1.13;0.80;;;3.70;99.90;;;;;;5042628;28;20234;-55
2021/12/01 00:54:17;;;;;;;4.05;1.20;;;3.70;99.90;;;;;;5042838;28;20273;-54
2021/12/01 00:56:45;;;;;;;1.95;0.80;;;3.70;99.90;;;;;;5042506;28;20198;-56
2021/12/01 00:59:13;;;;;;;1.75;1.15;;;3.70;99.90;;;;;;5042858;28;20225;-57
2021/12/01 01:01:40;;;;;;;1.88;0.77;;;3.80;99.90;;;;;;5042856;28;20241;-55
2021/12/01 01:04:08;;;;;;;1.05;1.05;;;3.80;99.90;;;;;;5042645;28;20321;-56
2021/12/01 01:06:37;;;;;;;3.35;1.25;;;3.70;99.90;;;;;;5042622;28;20503;-56
2021/12/01 01:09:06;;;;;;;3.10;1.48;;;3.70;99.90;;;;;;5041857;28;20222;-54
2021/12/01 01:17:10;;;;;;;2.67;1.15;;;3.70;99.90;;;;;;5042403;28;20252;-56
2021/12/01 01:19:39;;;;;;;1.00;1.00;;;3.70;99.90;;;;;;5022424;28;20219;-57
2021/12/01 01:22:07;;;;;;;1.42;1.20;;;3.70;99.90;;;;;;5022500;28;20516;-58
2021/12/01 01:24:35;;;;;;;1.48;1.17;;;3.70;99.90;;;;;;5021926;28;20201;-54
2021/12/01 01:27:03;;;;;;;2.15;0.95;;;3.70;99.90;;;;;;5022660;28;20241;-55
2021/12/01 01:29:34;;;;;;;5.18;1.50;;;3.70;99.90;;;;;;5020576;28;20230;-56
2021/12/01 01:32:03;;;;;;;0.70;0.70;;;3.70;99.90;;;;;;5022381;28;20268;-57
2021/12/01 01:34:30;;;;;;;2.83;1.02;;;3.70;99.90;;;;;;5021962;28;20202;-55
2021/12/01 01:36:57;;;;;;;1.52;0.85;;;3.70;99.90;;;;;;5022042;28;20367;-55
2021/12/01 01:39:25;;;;;;;0.73;0.73;;;3.70;99.90;;;;;;5022241;28;20225;-56
2021/12/01 01:41:54;;;;;;;1.30;1.20;;;3.70;99.90;;;;;;5036933;28;20455;-56
2021/12/01 01:44:21;;;;;;;1.05;0.98;;;3.70;99.90;;;;;;5022293;28;20221;-58
2021/12/01 01:46:49;;;;;;;0.95;0.75;;;3.70;99.90;;;;;;5021591;28;20436;-57
2021/12/01 01:51:44;;;;;;;3.05;1.17;;;3.70;99.90;;;;;;5021438;28;20260;-57
2021/12/01 01:54:12;;;;;;;1.58;1.35;;;3.70;99.90;;;;;;5021862;28;20268;-54
2021/12/01 01:56:41;;;;;;;1.77;0.77;;;3.70;99.90;;;;;;5021983;28;20206;-52
2021/12/01 01:59:09;;;;;;;2.05;1.00;;;3.70;99.90;;;;;;5021220;28;20482;-53
2021/12/01 02:01:46;;;;;;;0.80;0.80;;;3.70;99.90;;;;;;5021842;28;20200;-56
2021/12/01 02:04:18;;;;;;;3.22;1.05;;;3.70;99.90;;;;;;5021362;28;20202;-53
2021/12/01 02:06:47;;;;;;;3.28;1.17;;;3.70;99.90;;;;;;5021651;28;20505;-56
2021/12/01 02:09:19;;;;;;;3.10;1.55;;;3.70;99.90;;;;;;5020918;28;20218;-55
2021/12/01 02:11:47;;;;;;;2.58;1.67;;;3.70;99.90;;;;;;5021566;28;20249;-55
2021/12/01 02:14:16;;;;;;;1.85;0.90;;;3.70;99.90;;;;;;5020881;28;20238;-59
2021/12/01 02:16:44;;;;;;;1.08;0.98;;;3.70;99.90;;;;;;5021998;28;20237;-57
2021/12/01 02:19:12;;;;;;;1.77;1.67;;;3.70;99.90;;;;;;5037426;28;20288;-57
2021/12/01 02:21:41;;;;;;;1.23;0.85;;;3.60;99.90;;;;;;5041549;28;20198;-58
2021/12/01 02:24:12;;;;;;;3.58;1.50;;;3.60;99.90;;;;;;5041648;28;20201;-57
2021/12/01 02:26:42;;;;;;;1.30;1.15;;;3.60;99.90;;;;;;5041407;28;20373;-54
2021/12/01 02:29:13;;;;;;;1.00;0.65;;;3.70;99.90;;;;;;5041050;28;20564;-55
2021/12/01 02:31:41;;;;;;;2.00;1.30;;;3.70;99.90;;;;;;5040922;28;20198;-54
2021/12/01 02:34:12;;;;;;;1.13;1.00;;;3.60;99.90;;;;;;5041212;28;20197;-55
2021/12/01 02:36:41;;;;;;;1.98;1.17;;;3.70;99.90;;;;;;5041630;28;20395;-53
2021/12/01 02:39:11;;;;;;;0.90;0.90;;;3.70;99.90;;;;;;5041216;28;20237;-54
2021/12/01 02:41:39;;;;;;;3.05;1.35;;;3.70;99.90;;;;;;5041687;28;20235;-55
2021/12/01 02:44:08;;;;;;;3.22;0.90;;;3.70;99.90;;;;;;5042000;28;20208;-54
2021/12/01 02:46:36;;;;;;;1.95;0.63;;;3.70;99.90;;;;;;5024010;28;20196;-52
2021/12/01 02:49:04;;;;;;;6.25;1.55;;;3.70;99.90;;;;;;5041121;28;20225;-53
2021/12/01 02:51:33;;;;;;;1.25;1.15;;;3.70;99.90;;;;;;5041258;28;20219;-54
2021/12/01 02:54:00;;;;;;;1.30;1.20;;;3.70;99.90;;;;;;5041050;28;20264;-55
2021/12/01 02:56:29;;;;;;;1.98;1.13;;;3.70;99.90;;;;;;5041540;28;20725;-57
2021/12/01 02:58:59;;;;;;;3.45;1.42;;;3.70;99.90;;;;;;5040025;28;20283;-57
2021/12/01 03:01:28;;;;;;;0.60;0.60;;;3.70;99.90;;;;;;5041697;28;20415;-56
2021/12/01 03:03:58;;;;;;;1.27;1.10;;;3.70;99.90;;;;;;5041323;28;20240;-55
2021/12/01 03:06:27;;;;;;;4.20;1.85;;;3.70;99.90;;;;;;5040305;28;20213;-54
2021/12/01 03:08:56;;;;;;;10.48;4.82;;;3.60;99.90;;;;;;5040209;28;20214;-52
2021/12/01 03:11:25;;;;;;;2.22;2.00;;;3.70;99.90;;;;;;5040136;28;20205;-55
2021/12/01 03:13:54;;;;;;;1.88;1.20;;;3.70;99.90;;;;;;5040207;28;20225;-56
2021/12/01 03:16:22;;;;;;;2.25;1.20;;;3.80;99.90;;;;;;5039736;28;20198;-55
2021/12/01 03:18:50;;;;;;;9.52;1.45;;;3.70;99.90;;;;;;5027927;28;20212;-53
2021/12/01 03:21:18;;;;;;;5.63;1.13;;;3.80;99.90;;;;;;5019772;28;20199;-56
2021/12/01 03:23:45;;;;;;;0.95;0.77;;;3.60;99.90;;;;;;5020991;28;20249;-55
2021/12/01 03:26:13;;;;;;;0.65;0.55;;;3.60;99.90;;;;;;5019952;28;20202;-57
2021/12/01 03:28:40;;;;;;;2.25;1.17;;;3.50;99.90;;;;;;5020501;28;20380;-58
2021/12/01 03:31:08;;;;;;;2.45;1.13;;;3.60;99.90;;;;;;5019621;28;20582;-58
2021/12/01 03:33:36;;;;;;;1.27;0.93;;;3.70;99.90;;;;;;5020316;28;20289;-58
2021/12/01 03:36:04;;;;;;;2.83;2.17;;;3.90;99.90;;;;;;5020133;28;20441;-57
2021/12/01 03:38:31;;;;;;;1.08;0.98;;;3.80;99.90;;;;;;5019871;28;20244;-58
2021/12/01 03:40:59;;;;;;;5.78;1.38;;;3.60;99.90;;;;;;5020062;28;20221;-57
2021/12/01 03:43:26;;;;;;;4.30;1.98;;;3.70;99.90;;;;;;5020094;28;20505;-57
2021/12/01 03:45:54;;;;;;;7.40;3.20;;;3.80;99.90;;;;;;5020017;28;20276;-59
2021/12/01 03:48:23;;;;;;;1.92;1.30;;;3.90;99.90;;;;;;5019459;28;20275;-58
2021/12/01 03:50:52;;;;;;;4.50;2.40;;;4.00;99.90;;;;;;5019914;28;20283;-58
2021/12/01 03:53:22;;;;;;;1.52;0.82;;;3.90;99.90;;;;;;5018971;28;20222;-55
2021/12/01 03:55:50;;;;;;;1.33;0.93;;;4.00;99.90;;;;;;5019944;28;20228;-58
2021/12/01 03:58:18;;;;;;;2.30;1.27;;;3.90;99.90;;;;;;5019936;28;20520;-56
2021/12/01 04:00:47;;;;;;;1.75;0.85;;;3.80;99.90;;;;;;5019823;28;20264;-59
2021/12/01 04:03:15;;;;;;;1.48;0.90;;;3.70;99.90;;;;;;5020025;28;20203;-59
2021/12/01 04:05:43;;;;;;;1.10;1.02;;;3.50;99.90;;;;;;5019597;28;20395;-59
2021/12/01 04:08:11;;;;;;;4.38;1.60;;;3.40;99.90;;;;;;5020292;28;20501;-53
2021/12/01 04:10:38;;;;;;;1.42;1.10;;;3.30;99.90;;;;;;5018989;28;20506;-58
2021/12/01 04:13:06;;;;;;;2.55;1.35;;;3.20;99.90;;;;;;5019853;28;20478;-57
2021/12/01 04:15:33;;;;;;;6.93;1.80;;;3.10;99.90;;;;;;5019460;28;20500;-55
2021/12/01 04:18:01;;;;;;;5.10;1.58;;;3.00;99.90;;;;;;5025849;28;20204;-60
2021/12/01 04:20:28;;;;;;;2.15;1.05;;;2.80;99.90;;;;;;5039508;28;20239;-58
2021/12/01 04:22:56;;;;;;;1.70;1.60;;;2.80;99.90;;;;;;5039064;28;20318;-52
2021/12/01 04:25:23;;;;;;;2.55;1.10;;;2.80;99.90;;;;;;5039993;28;20200;-55
2021/12/01 04:27:51;;;;;;;2.00;1.67;;;2.80;99.90;;;;;;5039873;28;20253;-58
2021/12/01 04:30:22;;;;;;;1.30;1.20;;;2.70;99.90;;;;;;5039465;28;20263;-58
2021/12/01 04:32:52;;;;;;;1.85;1.15;;;2.70;99.90;;;;;;5039713;28;20459;-57
2021/12/01 04:35:20;;;;;;;6.85;3.10;;;2.70;99.90;;;;;;5039797;28;20196;-56
2021/12/01 04:37:49;;;;;;;3.03;2.05;;;2.30;99.90;;;;;;5038799;28;20196;-56
2021/12/01 04:40:17;;;;;;;2.85;2.13;;;2.50;99.90;;;;;;5039160;28;20216;-57
2021/12/01 04:42:45;;;;;;;2.95;1.65;;;2.50;99.90;;;;;;5039211;28;20223;-57
2021/12/01 04:45:14;;;;;;;2.70;1.80;;;2.50;99.90;;;;;;5039112;28;20246;-57
2021/12/01 04:47:47;;;;;;;6.32;2.63;;;2.50;99.90;;;;;;5039284;28;20204;-58
2021/12/01 04:50:17;;;;;;;1.67;1.50;;;2.60;99.90;;;;;;5038677;28;20224;-57
2021/12/01 04:52:45;;;;;;;2.83;2.33;;;2.60;99.90;;;;;;5038911;28;20216;-56
2021/12/01 04:55:13;;;;;;;7.20;1.50;;;2.60;99.90;;;;;;5038684;28;20200;-56
2021/12/01 04:57:45;;;;;;;1.45;1.30;;;2.60;99.90;;;;;;5039688;28;20251;-58
2021/12/01 05:00:16;;;;;;;2.83;2.45;;;2.60;99.90;;;;;;5037756;28;20442;-53
2021/12/01 05:02:43;;;;;;;6.40;4.28;;;2.60;99.90;;;;;;5031194;28;20201;-58
2021/12/01 05:05:11;;;;;;;7.18;4.10;;;2.70;99.90;;;;;;5027026;28;20204;-54
2021/12/01 05:07:39;;;;;;;3.35;2.60;;;2.60;99.90;;;;;;5022872;28;20251;-56
2021/12/01 05:10:07;;;;;;;5.55;3.03;;;2.60;99.90;;;;;;5022786;28;20221;-56
2021/12/01 05:12:36;;;;;;;4.45;3.13;;;2.50;99.90;;;;;;5022202;28;20216;-53
2021/12/01 05:15:04;;;;;;;3.20;2.00;;;2.60;99.90;;;;;;5023035;28;20254;-56
2021/12/01 05:17:32;;;;;;;4.63;2.53;;;2.60;99.90;;;;;;5024259;28;20189;-57
2021/12/01 05:20:00;;;;;;;9.40;3.35;;;2.50;99.90;;;;;;5038439;28;20220;-53
2021/12/01 05:22:27;;;;;;;8.10;4.25;;;2.40;99.90;;;;;;5023824;28;20197;-57
2021/12/01 05:24:55;;;;;;;6.55;4.30;;;2.20;99.90;;;;;;5022657;28;20414;-53
2021/12/01 05:27:22;;;;;;;5.43;4.57;;;2.40;99.90;;;;;;5022071;28;20196;-55
2021/12/01 05:29:50;;;;;;;10.68;4.68;;;2.10;99.90;;;;;;5022405;28;20225;-55
2021/12/01 05:32:18;;;;;;;8.00;4.43;;;2.20;99.90;;;;;;5021933;28;20213;-57
2021/12/01 05:34:45;;;;;;;8.30;4.38;;;2.40;99.90;;;;;;5030803;28;20496;-54
2021/12/01 05:37:12;;;;;;;3.03;2.60;;;2.40;99.90;;;;;;5033852;28;20260;-56
2021/12/01 05:39:44;;;;;;;16.10;4.07;;;2.40;99.90;;;;;;5035737;28;20223;-54
2021/12/01 05:42:12;;;;;;;5.07;3.67;;;2.50;99.90;;;;;;5037479;28;20204;-55
2021/12/01 05:44:41;;;;;;;7.47;3.60;;;2.50;99.90;;;;;;5021811;28;20205;-57
2021/12/01 05:47:09;;;;;;;8.10;3.13;;;2.50;99.90;;;;;;5036621;28;20398;-56
2021/12/01 05:49:41;;;;;;;4.93;2.50;;;2.70;99.90;;;;;;5022246;28;20564;-56
2021/12/01 05:52:10;;;;;;;8.68;2.75;;;2.70;99.90;;;;;;5022008;28;20481;-55
2021/12/01 05:54:38;;;;;;;5.25;3.08;;;2.70;99.90;;;;;;5021953;28;20221;-53
2021/12/01 05:57:06;;;;;;;7.40;3.05;;;2.70;99.90;;;;;;5021069;28;20240;-52
2021/12/01 05:59:33;;;;;;;4.18;2.40;;;2.70;99.90;;;;;;5021611;28;20536;-56
2021/12/01 06:02:01;;;;;;;6.15;3.70;;;2.90;99.90;;;;;;5027772;28;20614;-57
2021/12/01 06:04:29;;;;;;;5.32;4.03;;;2.90;99.90;;;;;;5031860;28;20235;-52
2021/12/01 06:06:56;;;;;;;9.52;3.95;;;2.90;99.90;;;;;;5021469;28;20202;-55
2021/12/01 06:09:23;;;;;;;3.90;3.53;;;3.00;99.90;;;;;;5021251;28;20233;-55
2021/12/01 06:11:52;;;;;;;9.90;6.60;;;3.00;99.90;;;;;;5021711;28;20209;-56
2021/12/01 06:14:20;;;;;;;17.17;7.90;;;2.90;99.90;;;;;;5021209;28;20229;-60
2021/12/01 06:16:48;;;;;;;19.90;9.80;;;3.00;99.90;;;;;;5021871;28;20244;-56
2021/12/01 06:19:15;;;;;;;21.80;13.57;;;3.00;99.90;;;;;;5021203;28;20216;-60
2021/12/01 06:21:42;;;;;;;21.00;12.73;;;3.00;99.90;;;;;;5022586;28;20197;-53
2021/12/01 06:24:10;;;;;;;4.95;4.40;;;3.00;99.90;;;;;;5028851;28;20208;-52
2021/12/01 06:26:37;;;;;;;8.88;5.50;;;3.00;99.90;;;;;;5022466;28;20309;-56
2021/12/01 06:29:04;;;;;;;5.20;4.70;;;2.90;99.90;;;;;;5021368;28;20543;-55
2021/12/01 06:31:32;;;;;;;13.95;9.40;;;2.90;99.90;;;;;;5028008;28;20201;-57
2021/12/01 06:34:02;;;;;;;11.65;6.93;;;2.80;99.90;;;;;;5038064;28;20266;-58
2021/12/01 06:36:30;;;;;;;4.63;3.92;;;2.90;99.90;;;;;;5036859;28;20480;-57
2021/12/01 06:38:57;;;;;;;7.35;5.63;;;2.90;99.90;;;;;;5026799;28;20551;-56
2021/12/01 06:41:24;;;;;;;10.40;4.40;;;2.80;99.90;;;;;;5025896;28;20293;-55
2021/12/01 06:43:53;;;;;;;7.85;4.50;;;2.80;99.90;;;;;;5021459;28;20206;-55
2021/12/01 06:46:21;;;;;;;8.85;4.35;;;2.80;99.90;;;;;;5021544;28;20205;-53
2021/12/01 06:48:48;;;;;;;5.55;4.97;;;2.80;99.90;;;;;;5023124;28;20207;-56
2021/12/01 06:51:16;;;;;;;8.65;3.25;;;2.90;99.90;;;;;;5027956;28;20263;-57
2021/12/01 06:53:43;;;;;;;4.30;3.38;;;3.10;99.90;;;;;;5028911;28;20588;-56
2021/12/01 06:56:10;;;;;;;6.65;4.00;;;3.30;99.90;;;;;;5022157;28;20205;-54
2021/12/01 06:58:38;;;;;;;5.70;4.82;;;3.50;99.90;;;;;;5024522;28;20236;-53
2021/12/01 07:01:06;;;;;;;10.52;5.65;;;3.30;99.90;;;;;;5024155;28;20200;-55
2021/12/01 07:03:40;;;;;;;12.27;3.90;;;3.30;99.90;;;;;;5026162;28;20201;-56
2021/12/01 07:06:08;;;;;;;7.53;3.50;;;3.30;99.90;;;;;;5021970;28;20534;-54
2021/12/01 07:08:36;;;;;;;11.48;4.70;;;3.30;99.90;;;;;;5027354;28;20206;-57
2021/12/01 07:11:04;;;;;;;6.22;3.63;;;3.30;99.90;;;;;;5027159;28;20225;-54
2021/12/01 07:13:33;;;;;;;13.18;3.95;;;3.40;99.90;;;;;;5021555;28;20217;-57
2021/12/01 07:16:01;;;;;;;6.28;3.30;;;3.60;99.90;;;;;;5023688;28;20209;-57
2021/12/01 07:18:29;;;;;;;9.77;4.80;;;3.60;99.90;;;;;;5025457;28;20221;-57
2021/12/01 07:20:57;;;;;;;9.07;4.50;;;3.60;99.90;;;;;;5026626;28;20279;-58
2021/12/01 07:23:25;;;;;;;6.95;4.10;;;3.50;99.90;;;;;;5026510;28;20206;-57
2021/12/01 07:26:00;;;;;;;5.32;3.97;;;3.60;99.90;;;;;;5026312;28;20276;-63
2021/12/01 07:28:28;;;;;;;7.45;3.42;;;3.60;99.90;;;;;;5025802;28;20241;-59
2021/12/01 07:30:56;;;;;;;6.97;4.20;;;3.80;99.90;;;;;;5022959;28;20230;-56
2021/12/01 07:33:28;;;;;;;10.65;5.57;;;3.80;99.90;;;;;;5021037;28;20237;-54
2021/12/01 07:35:55;;;;;;;6.82;3.42;;;3.90;99.90;;;;;;5026603;28;20437;-57
2021/12/01 07:38:23;;;;;;;7.45;4.90;;;4.00;99.90;;;;;;5024549;28;20237;-57
2021/12/01 07:40:50;;;;;;;6.22;3.17;;;4.00;99.90;;;;;;5021894;28;20226;-59
2021/12/01 07:43:17;;;;;;;11.68;4.20;;;4.10;99.90;;;;;;5023617;28;20202;-55
2021/12/01 07:45:46;;;;;;;8.40;3.67;;;4.20;99.90;;;;;;5022854;28;20242;-52
2021/12/01 07:48:13;;;;;;;8.80;4.05;;;4.30;99.90;;;;;;5020647;28;20287;-57
2021/12/01 07:50:41;;;;;;;7.72;3.20;;;4.40;99.90;;;;;;5023709;28;20225;-56
2021/12/01 07:53:09;;;;;;;14.15;4.60;;;4.30;99.90;;;;;;5021155;28;20517;-57
2021/12/01 07:55:38;;;;;;;10.55;3.97;;;4.40;99.90;;;;;;5021764;28;20211;-54
2021/12/01 07:58:06;;;;;;;9.23;5.13;;;4.50;99.90;;;;;;5020268;28;20463;-53
2021/12/01 08:00:34;;;;;;;6.80;3.58;;;4.50;99.90;;;;;;5022724;28;20219;-56
2021/12/01 08:03:01;;;;;;;5.88;4.03;;;4.40;99.90;;;;;;5020805;28;20587;-57
2021/12/01 08:05:29;;;;;;;5.07;4.55;;;4.50;99.90;;;;;;5021289;28;20206;-55
2021/12/01 08:07:56;;;;;;;12.48;4.82;;;4.50;99.90;;;;;;5021110;28;20203;-55
2021/12/01 08:10:24;;;;;;;15.25;5.97;;;4.40;99.90;;;;;;5021172;28;20234;-57
2021/12/01 08:12:52;;;;;;;9.05;4.03;;;4.40;99.90;;;;;;5020991;28;20382;-56
2021/12/01 08:15:38;;;;;;;7.13;5.60;;;4.20;99.90;;;;;;5026623;28;20211;-55
2021/12/01 08:18:06;;;;;;;11.23;6.43;;;4.20;99.90;;;;;;5020318;28;20208;-55
2021/12/01 08:20:36;;;;;;;6.20;4.40;;;4.10;99.90;;;;;;5023911;28;20219;-57
2021/12/01 08:23:04;;;;;;;13.18;5.97;;;4.20;99.90;;;;;;5020514;28;20199;-58
2021/12/01 08:25:31;;;;;;;13.57;5.90;;;4.30;99.90;;;;;;5023151;28;20514;-56
2021/12/01 08:28:01;;;;;;;9.75;5.22;;;4.30;99.90;;;;;;5020532;28;20505;-58
2021/12/01 08:30:30;;;;;;;7.80;4.95;;;4.20;99.90;;;;;;5023602;28;20219;-59
2021/12/01 08:32:57;;;;;;;13.27;5.88;;;4.30;99.90;;;;;;5022836;28;20203;-58
2021/12/01 08:35:25;;;;;;;13.85;6.70;;;4.30;99.90;;;;;;5020953;28;20230;-55
2021/12/01 08:37:52;;;;;;;10.60;6.28;;;4.40;99.90;;;;;;5020593;28;20211;-58
2021/12/01 08:40:19;;;;;;;12.30;6.85;;;4.50;99.90;;;;;;5031870;28;20226;-55
2021/12/01 08:42:47;;;;;;;9.07;6.50;;;4.50;99.90;;;;;;5036145;28;20237;-58
2021/12/01 08:45:15;;;;;;;6.93;5.80;;;4.40;99.90;;;;;;5035962;28;20445;-57
2021/12/01 08:47:42;;;;;;;15.70;6.43;;;4.40;99.90;;;;;;5029940;28;20241;-56
2021/12/01 08:50:11;;;;;;;11.65;7.85;;;4.50;99.90;;;;;;5031106;28;20227;-56
2021/12/01 08:52:39;;;;;;;13.50;6.28;;;4.50;99.90;;;;;;5031783;28;20246;-57
2021/12/01 08:55:08;;;;;;;8.55;5.40;;;4.60;99.90;;;;;;5022021;28;20239;-59
2021/12/01 08:57:35;;;;;;;10.18;5.53;;;4.70;99.90;;;;;;5022685;28;20269;-58
2021/12/01 09:00:05;;;;;;;10.02;5.63;;;4.80;99.90;;;;;;5022576;28;20239;-57
2021/12/01 09:02:33;;;;;;;6.38;5.78;;;4.70;99.90;;;;;;5022494;28;20558;-56
2021/12/01 09:05:01;;;;;;;9.48;4.63;;;4.80;99.90;;;;;;5023351;28;20266;-58
2021/12/01 09:07:29;;;;;;;9.98;5.70;;;4.90;99.90;;;;;;5039283;28;20521;-59
2021/12/01 09:09:56;;;;;;;6.38;4.75;;;4.90;99.90;;;;;;5022772;28;20235;-54
2021/12/01 09:12:24;;;;;;;14.18;4.93;;;5.00;99.90;;;;;;5022317;28;20227;-58
2021/12/01 09:14:54;;;;;;;12.25;5.60;;;5.10;99.90;;;;;;5022724;28;20227;-56
2021/12/01 09:17:23;;;;;;;5.05;4.10;;;5.20;99.90;;;;;;5022565;28;20199;-59
2021/12/01 09:19:51;;;;;;;12.82;5.90;;;5.20;99.90;;;;;;5026256;28;20228;-60
2021/12/01 09:22:20;;;;;;;5.10;4.13;;;5.20;99.90;;;;;;5041213;28;20215;-56
2021/12/01 09:24:48;;;;;;;8.45;4.40;;;5.10;99.90;;;;;;5041856;28;20249;-54
2021/12/01 09:27:16;;;;;;;7.50;4.90;;;5.10;99.90;;;;;;5042247;28;20395;-58
2021/12/01 09:29:43;;;;;;;8.63;5.50;;;5.00;99.90;;;;;;5041585;28;20259;-56
2021/12/01 09:32:12;;;;;;;10.35;5.57;;;5.00;99.90;;;;;;5042868;28;20223;-55
2021/12/01 09:34:41;;;;;;;9.30;4.43;;;5.00;99.90;;;;;;5041473;28;20536;-56
2021/12/01 09:37:09;;;;;;;7.82;5.78;;;4.90;99.90;;;;;;5038563;28;20205;-56
2021/12/01 09:39:37;;;;;;;9.88;6.15;;;4.90;99.90;;;;;;5038090;28;20438;-55
2021/12/01 09:42:08;;;;;;;10.65;6.00;;;4.90;99.90;;;;;;5022015;28;20203;-57
2021/12/01 09:44:37;;;;;;;6.10;4.20;;;5.00;99.90;;;;;;5021984;28;20200;-56
2021/12/01 09:47:06;;;;;;;12.50;7.40;;;5.10;99.90;;;;;;5027606;28;20208;-59
2021/12/01 09:49:33;;;;;;;8.18;4.70;;;5.20;99.90;;;;;;5029849;28;20477;-54
2021/12/01 09:52:02;;;;;;;7.82;5.65;;;5.20;99.90;;;;;;5035810;28;20207;-55
2021/12/01 09:54:29;;;;;;;9.75;5.60;;;5.30;99.90;;;;;;5022902;28;20412;-58
2021/12/01 09:56:57;;;;;;;15.15;8.70;;;5.50;99.90;;;;;;5037894;28;20215;-56
2021/12/01 09:59:24;;;;;;;13.00;6.70;;;5.50;99.90;;;;;;5040648;28;20294;-57
2021/12/01 10:01:51;;;;;;;9.38;6.28;;;5.50;99.90;;;;;;5040753;28;20200;-57
2021/12/01 10:04:19;;;;;;;7.68;4.70;;;5.60;99.90;;;;;;5039833;28;20410;-53
2021/12/01 10:06:46;;;;;;;7.72;5.43;;;5.70;99.90;;;;;;5041146;28;20581;-53
2021/12/01 10:09:18;;;;;;;20.63;12.10;;;5.80;99.90;;;;;;5040460;28;20220;-56
2021/12/01 10:11:45;;;;;;;12.68;6.13;;;5.90;99.90;;;;;;5037874;28;20525;-53
2021/12/01 10:14:22;;;;;;;20.63;8.07;;;6.00;99.90;;;;;;5040749;28;20296;-59
2021/12/01 10:16:54;;;;;;;7.60;4.18;;;6.10;99.90;;;;;;5038890;28;20200;-56
2021/12/01 10:19:28;;;;;;;5.38;4.20;;;6.20;99.90;;;;;;5040643;28;20219;-59
2021/12/01 10:21:55;;;;;;;6.10;4.65;;;6.20;99.90;;;;;;5040285;28;20210;-59
2021/12/01 10:24:26;;;;;;;8.27;3.50;;;6.30;99.90;;;;;;5039920;28;20210;-55
2021/12/01 10:26:58;;;;;;;4.72;3.78;;;6.40;99.90;;;;;;5040184;28;20261;-57
2021/12/01 10:29:30;;;;;;;4.55;4.18;;;6.50;99.90;;;;;;5040074;28;20279;-56
2021/12/01 10:32:02;;;;;;;3.08;2.88;;;6.60;99.90;;;;;;5040564;28;20212;-55
2021/12/01 10:34:43;;;;;;;7.43;4.80;;;6.70;99.90;;;;;;5039616;28;20298;-52
2021/12/01 10:37:27;;;;;;;4.07;3.65;;;6.70;99.90;;;;;;5040174;28;20569;-55
2021/12/01 10:40:07;;;;;;;6.63;3.80;;;6.80;99.90;;;;;;5038527;28;20220;-58
2021/12/01 10:43:01;;;;;;;3.30;2.72;;;6.90;99.90;;;;;;5039693;28;20259;-56
2021/12/01 10:45:31;;;;;;;3.70;2.92;;;6.90;99.90;;;;;;5039262;28;20202;-56
2021/12/01 10:47:59;;;;;;;6.82;3.40;;;7.00;99.90;;;;;;5040235;28;20208;-58
2021/12/01 10:50:30;;;;;;;8.98;3.65;;;7.10;99.90;;;;;;5037859;28;20231;-57
2021/12/01 10:53:11;;;;;;;3.50;2.78;;;7.20;99.90;;;;;;5033975;28;20197;-59
2021/12/01 10:55:47;;;;;;;7.18;5.25;;;7.30;99.90;;;;;;5032564;28;20262;-57
2021/12/01 10:58:15;;;;;;;4.20;3.35;;;7.20;99.90;;;;;;5034856;28;20204;-57
2021/12/01 11:00:45;;;;;;;3.33;2.53;;;7.30;99.90;;;;;;5033058;28;20215;-56
2021/12/01 11:03:15;;;;;;;5.32;3.05;;;7.20;99.90;;;;;;5033730;28;20251;-58
2021/12/01 11:05:49;;;;;;;4.38;3.28;;;7.10;99.90;;;;;;5033302;28;20207;-56
2021/12/01 11:08:19;;;;;;;3.08;2.63;;;7.00;99.90;;;;;;5038912;28;20518;-55
2021/12/01 11:10:52;;;;;;;4.28;2.60;;;6.90;99.90;;;;;;5036747;28;20227;-57
2021/12/01 11:13:21;;;;;;;2.38;2.17;;;6.80;99.90;;;;;;5039075;28;20340;-52
2021/12/01 11:15:57;;;;;;;3.08;2.20;;;6.70;99.90;;;;;;5039475;28;20262;-55
2021/12/01 11:18:50;;;;;;;2.38;2.17;;;6.70;99.90;;;;;;5036384;28;20216;-55
2021/12/01 11:21:23;;;;;;;3.53;2.90;;;6.60;99.90;;;;;;5039295;28;20541;-54
2021/12/01 11:23:56;;;;;;;4.53;2.88;;;6.70;99.90;;;;;;5039213;28;20458;-57
2021/12/01 11:26:26;;;;;;;4.95;2.80;;;6.70;99.90;;;;;;5032934;28;20238;-56
2021/12/01 11:29:06;;;;;;;3.40;2.13;;;6.70;99.90;;;;;;5029740;28;20208;-57
2021/12/01 11:31:43;;;;;;;2.88;2.17;;;6.70;99.90;;;;;;5037462;28;20265;-56
2021/12/01 11:34:13;;;;;;;2.97;2.60;;;6.80;99.90;;;;;;5039112;28;20557;-57
2021/12/01 11:36:46;;;;;;;4.03;2.33;;;6.70;99.90;;;;;;5039073;28;20203;-56
2021/12/01 11:39:25;;;;;;;1.88;1.73;;;6.70;99.90;;;;;;5039046;28;20270;-54
2021/12/01 11:41:54;;;;;;;2.35;1.73;;;6.60;99.90;;;;;;5038794;28;20208;-54
2021/12/01 11:44:25;;;;;;;1.90;1.80;;;6.70;99.90;;;;;;5038794;28;20243;-53
2021/12/01 11:46:53;;;;;;;3.58;2.10;;;6.60;99.90;;;;;;5038557;28;20275;-57
2021/12/01 11:49:23;;;;;;;3.03;2.20;;;6.70;99.90;;;;;;5038418;28;20510;-57
2021/12/01 11:51:58;;;;;;;2.72;1.95;;;6.60;99.90;;;;;;5036785;28;20212;-57
2021/12/01 11:54:27;;;;;;;2.90;1.80;;;6.50;99.90;;;;;;5032539;28;20227;-56
2021/12/01 11:57:08;;;;;;;2.95;2.10;;;6.50;99.90;;;;;;5038853;28;20506;-55
2021/12/01 11:59:37;;;;;;;3.28;2.78;;;6.50;99.90;;;;;;5020161;28;20225;-57
2021/12/01 12:02:16;;;;;;;3.75;2.22;;;6.50;99.90;;;;;;5019428;28;20322;-56
2021/12/01 12:04:44;;;;;;;4.95;3.20;;;6.50;99.90;;;;;;5020065;28;20204;-57
2021/12/01 12:07:29;;;;;;;1.88;1.73;;;6.50;99.90;;;;;;5019418;28;20208;-60
2021/12/01 12:10:07;;;;;;;2.50;2.30;;;6.50;99.90;;;;;;5019294;28;20569;-59
2021/12/01 12:12:47;;;;;;;4.68;2.03;;;6.60;99.90;;;;;;5028228;28;20222;-58
2021/12/01 12:15:33;;;;;;;4.40;3.15;;;6.60;99.90;;;;;;5042197;28;20219;-60
2021/12/01 12:18:07;;;;;;;2.97;2.15;;;6.60;99.90;;;;;;5039266;28;20196;-57
2021/12/01 12:20:49;;;;;;;2.45;2.25;;;6.70;99.90;;;;;;5042090;28;20216;-61
2021/12/01 12:23:18;;;;;;;2.80;1.83;;;6.70;99.90;;;;;;5042273;28;20223;-54
2021/12/01 12:25:53;;;;;;;1.65;1.55;;;6.80;99.90;;;;;;5041155;28;20330;-59
2021/12/01 12:28:42;;;;;;;2.08;1.75;;;6.80;99.90;;;;;;5043040;28;20227;-57
2021/12/01 12:31:19;;;;;;;2.50;2.30;;;7.00;99.90;;;;;;5042214;28;20226;-56
2021/12/01 12:34:03;;;;;;;3.15;2.13;;;7.00;99.90;;;;;;5041310;28;20227;-57
2021/12/01 12:36:53;;;;;;;2.58;1.95;;;7.10;99.90;;;;;;5042737;28;20740;-57
2021/12/01 12:39:30;;;;;;;2.33;1.55;;;7.10;99.90;;;;;;5039915;28;20220;-58
2021/12/01 12:41:58;;;;;;;4.63;2.00;;;7.20;99.90;;;;;;5039951;28;20521;-59
2021/12/01 12:44:41;;;;;;;1.83;1.63;;;7.40;99.90;;;;;;5041993;28;20203;-54
2021/12/01 12:47:37;;;;;;;2.25;1.52;;;7.50;99.90;;;;;;5025255;28;20196;-58
2021/12/01 12:50:15;;;;;;;4.88;2.42;;;7.60;99.90;;;;;;5040030;28;20557;-56
2021/12/01 12:52:44;;;;;;;2.30;1.85;;;7.50;99.90;;;;;;5042245;28;20552;-58
2021/12/01 12:55:31;;;;;;;2.25;1.85;;;7.40;99.90;;;;;;5041219;28;20231;-57
2021/12/01 12:58:09;;;;;;;3.95;1.92;;;7.50;99.90;;;;;;5039215;28;20203;-58
2021/12/01 13:00:56;;;;;;;3.28;2.20;;;7.60;99.90;;;;;;5031989;28;20228;-60
2021/12/01 13:03:23;;;;;;;2.30;2.10;;;7.70;99.90;;;;;;5030331;28;20196;-57
2021/12/01 13:05:54;;;;;;;5.35;3.00;;;7.80;99.90;;;;;;5028905;28;20243;-56
2021/12/01 13:08:44;;;;;;;1.95;1.63;;;8.10;99.90;;;;;;5030673;28;20229;-56
2021/12/01 13:11:14;;;;;;;2.25;2.05;;;8.00;99.90;;;;;;5038082;28;20208;-58
2021/12/01 13:13:46;;;;;;;2.53;1.50;;;7.90;99.90;;;;;;5041996;28;20193;-57
2021/12/01 13:16:16;;;;;;;4.47;2.65;;;7.90;99.90;;;;;;5041563;28;20289;-57
2021/12/01 13:18:45;;;;;;;1.85;1.23;;;7.90;99.90;;;;;;5039165;28;20197;-55